createdAt,value
2019-03-04T00:01:17.770Z,993.98
2019-03-04T00:02:17.801Z,993.95
2019-03-04T00:03:17.833Z,993.88
2019-03-04T00:04:18.172Z,993.84
2019-03-04T00:05:18.148Z,993.91
2019-03-04T00:06:18.031Z,993.86
2019-03-04T00:07:17.956Z,993.80
2019-03-04T00:08:18.299Z,993.79
2019-03-04T00:09:17.980Z,993.75
2019-03-04T00:10:18.059Z,993.74
2019-03-04T00:11:18.084Z,993.67
2019-03-04T00:12:18.428Z,993.72
2019-03-04T00:13:18.099Z,993.71
2019-03-04T00:16:18.202Z,993.52
2019-03-04T00:17:18.283Z,993.40
2019-03-04T00:18:18.320Z,993.47
2019-03-04T00:19:18.592Z,993.40
2019-03-04T00:20:18.330Z,993.41
2019-03-04T00:21:18.409Z,993.35
2019-03-04T00:22:18.445Z,993.25
2019-03-04T00:23:18.426Z,993.31
2019-03-04T00:24:18.611Z,993.24
2019-03-04T00:25:18.493Z,993.09
2019-03-04T00:27:18.908Z,993.10
2019-03-04T00:28:18.630Z,993.08
2019-03-04T00:29:18.615Z,993.00
2019-03-04T00:30:18.799Z,992.94
2019-03-04T00:31:18.687Z,992.92
2019-03-04T00:32:18.858Z,992.85
2019-03-04T00:33:18.756Z,992.73
2019-03-04T00:34:19.132Z,992.71
2019-03-04T00:35:18.872Z,992.67
2019-03-04T00:36:18.992Z,992.70
2019-03-04T00:37:18.874Z,992.66
2019-03-04T00:38:18.913Z,992.62
2019-03-04T00:39:18.935Z,992.66
2019-03-04T00:40:19.029Z,992.57
2019-03-04T00:41:19.394Z,992.51
2019-03-04T00:42:19.089Z,992.48
2019-03-04T00:43:19.110Z,992.54
2019-03-04T00:45:19.184Z,992.31
2019-03-04T00:47:19.244Z,992.39
2019-03-04T00:48:19.528Z,992.40
2019-03-04T00:49:19.302Z,992.32
2019-03-04T00:50:19.334Z,992.30
2019-03-04T00:51:19.322Z,992.29
2019-03-04T00:52:19.449Z,992.19
2019-03-04T00:53:19.439Z,992.06
2019-03-04T00:54:19.469Z,991.87
2019-03-04T00:55:19.797Z,991.97
2019-03-04T00:56:19.841Z,992.03
2019-03-04T00:57:19.563Z,992.13
2019-03-04T00:58:19.599Z,992.28
2019-03-04T00:59:19.574Z,992.33
2019-03-04T01:00:19.973Z,992.44
2019-03-04T01:02:19.720Z,992.48
2019-03-04T01:03:20.059Z,992.50
2019-03-04T01:04:19.895Z,992.47
2019-03-04T01:05:19.820Z,992.38
2019-03-04T01:06:19.807Z,992.37
2019-03-04T01:09:19.953Z,992.51
2019-03-04T01:10:20.284Z,992.47
2019-03-04T01:11:20.111Z,992.38
2019-03-04T01:12:19.992Z,992.37
2019-03-04T01:13:20.097Z,992.34
2019-03-04T01:14:20.126Z,992.41
2019-03-04T01:15:22.382Z,992.45
2019-03-04T01:17:20.208Z,992.41
2019-03-04T01:18:20.508Z,992.47
2019-03-04T01:20:20.310Z,992.44
2019-03-04T01:21:20.285Z,992.47
2019-03-04T01:22:20.364Z,992.51
2019-03-04T01:23:20.396Z,992.57
2019-03-04T01:24:20.379Z,992.54
2019-03-04T01:25:20.710Z,992.56
2019-03-04T01:26:20.491Z,992.48
2019-03-04T01:27:20.528Z,992.43
2019-03-04T01:28:20.512Z,992.46
2019-03-04T01:29:20.544Z,992.40
2019-03-04T01:30:20.575Z,992.40
2019-03-04T01:31:20.653Z,992.30
2019-03-04T01:32:20.984Z,992.28
2019-03-04T01:33:20.663Z,992.20
2019-03-04T01:34:20.756Z,992.12
2019-03-04T01:35:20.775Z,992.03
2019-03-04T01:36:20.763Z,991.92
2019-03-04T01:37:20.796Z,991.77
2019-03-04T01:38:20.826Z,991.63
2019-03-04T01:39:21.211Z,991.61
2019-03-04T01:40:20.941Z,991.63
2019-03-04T01:41:20.927Z,991.62
2019-03-04T01:42:20.955Z,991.60
2019-03-04T01:43:21.031Z,991.46
2019-03-04T01:44:21.022Z,991.28
2019-03-04T01:45:21.050Z,991.40
2019-03-04T01:46:21.428Z,991.68
2019-03-04T01:47:21.112Z,991.96
2019-03-04T01:48:21.193Z,991.85
2019-03-04T01:49:21.179Z,991.53
2019-03-04T01:50:21.259Z,991.34
2019-03-04T01:51:21.289Z,991.33
2019-03-04T01:52:21.324Z,991.22
2019-03-04T01:53:21.655Z,991.21
2019-03-04T01:54:21.349Z,991.15
2019-03-04T01:55:21.430Z,990.99
2019-03-04T01:56:21.452Z,990.98
2019-03-04T01:57:21.485Z,990.97
2019-03-04T01:58:21.463Z,991.22
2019-03-04T01:59:21.547Z,991.37
2019-03-04T02:00:21.978Z,991.41
2019-03-04T02:01:21.608Z,991.42
2019-03-04T02:02:21.644Z,991.29
2019-03-04T02:03:21.622Z,991.23
2019-03-04T02:04:21.713Z,991.11
2019-03-04T02:05:21.686Z,991.05
2019-03-04T02:06:21.723Z,991.00
2019-03-04T02:07:22.056Z,990.96
2019-03-04T02:08:21.829Z,990.91
2019-03-04T02:09:21.870Z,990.94
2019-03-04T02:11:21.934Z,990.70
2019-03-04T02:12:21.963Z,990.77
2019-03-04T02:13:22.025Z,990.73
2019-03-04T02:15:22.356Z,990.74
2019-03-04T02:16:22.044Z,990.54
2019-03-04T02:17:22.074Z,990.57
2019-03-04T02:18:22.100Z,990.53
2019-03-04T02:19:22.196Z,990.61
2019-03-04T02:20:22.215Z,990.63
2019-03-04T02:21:22.196Z,990.62
2019-03-04T02:22:22.583Z,990.57
2019-03-04T02:23:22.314Z,990.40
2019-03-04T02:24:22.353Z,990.44
2019-03-04T02:25:22.382Z,990.36
2019-03-04T02:26:22.414Z,990.29
2019-03-04T02:27:22.545Z,990.17
2019-03-04T02:28:22.471Z,990.04
2019-03-04T02:29:22.809Z,989.91
2019-03-04T02:30:22.550Z,989.93
2019-03-04T02:32:22.559Z,989.85
2019-03-04T02:33:22.641Z,989.82
2019-03-04T02:34:22.679Z,989.76
2019-03-04T02:35:22.699Z,989.71
2019-03-04T02:36:23.035Z,989.77
2019-03-04T02:37:22.763Z,989.70
2019-03-04T02:38:22.740Z,989.75
2019-03-04T02:39:22.777Z,989.63
2019-03-04T02:40:22.820Z,989.71
2019-03-04T02:41:22.900Z,989.61
2019-03-04T02:43:23.061Z,989.65
2019-03-04T02:44:23.282Z,989.50
2019-03-04T02:45:23.026Z,989.58
2019-03-04T02:46:23.065Z,989.58
2019-03-04T02:47:23.180Z,989.47
2019-03-04T02:48:23.127Z,989.50
2019-03-04T02:49:23.121Z,989.57
2019-03-04T02:50:23.174Z,989.51
2019-03-04T02:51:23.155Z,989.53
2019-03-04T02:52:23.246Z,989.53
2019-03-04T02:53:23.217Z,989.53
2019-03-04T02:54:23.308Z,989.52
2019-03-04T02:55:23.288Z,989.53
2019-03-04T02:56:23.321Z,989.50
2019-03-04T02:57:23.706Z,989.50
2019-03-04T02:58:23.432Z,989.45
2019-03-04T02:59:23.414Z,989.48
2019-03-04T03:00:23.502Z,989.58
2019-03-04T03:01:23.479Z,989.57
2019-03-04T03:02:23.573Z,989.50
2019-03-04T03:03:23.898Z,989.52
2019-03-04T03:04:23.594Z,989.49
2019-03-04T03:05:23.659Z,989.45
2019-03-04T03:06:23.693Z,989.37
2019-03-04T03:07:23.668Z,989.27
2019-03-04T03:08:23.705Z,989.19
2019-03-04T03:09:24.084Z,989.23
2019-03-04T03:10:23.811Z,989.15
2019-03-04T03:11:23.853Z,989.23
2019-03-04T03:12:23.833Z,989.19
2019-03-04T03:13:23.922Z,989.15
2019-03-04T03:14:23.895Z,989.09
2019-03-04T03:15:24.273Z,989.04
2019-03-04T03:16:24.020Z,988.96
2019-03-04T03:17:24.000Z,988.88
2019-03-04T03:18:24.020Z,988.86
2019-03-04T03:19:24.206Z,988.80
2019-03-04T03:20:24.086Z,988.76
2019-03-04T03:21:24.173Z,988.79
2019-03-04T03:22:24.452Z,988.65
2019-03-04T03:23:24.181Z,988.71
2019-03-04T03:24:24.364Z,988.41
2019-03-04T03:25:24.314Z,988.45
2019-03-04T03:26:24.326Z,988.41
2019-03-04T03:27:24.316Z,988.37
2019-03-04T03:28:24.341Z,988.20
2019-03-04T03:29:24.676Z,988.22
2019-03-04T03:30:24.423Z,987.95
2019-03-04T03:31:24.484Z,987.95
2019-03-04T03:32:24.469Z,987.87
2019-03-04T03:33:24.547Z,987.75
2019-03-04T03:34:24.600Z,987.59
2019-03-04T03:35:24.561Z,987.67
2019-03-04T03:36:24.658Z,987.70
2019-03-04T03:37:24.631Z,987.83
2019-03-04T03:38:24.667Z,987.73
2019-03-04T03:39:24.756Z,987.80
2019-03-04T03:40:24.721Z,987.54
2019-03-04T03:41:24.759Z,987.42
2019-03-04T03:42:25.086Z,987.31
2019-03-04T03:43:24.873Z,987.33
2019-03-04T03:44:24.911Z,987.35
2019-03-04T03:45:24.938Z,987.39
2019-03-04T03:46:24.931Z,987.44
2019-03-04T03:47:24.999Z,987.33
2019-03-04T03:48:25.016Z,987.48
2019-03-04T03:49:25.369Z,987.55
2019-03-04T03:50:25.097Z,987.62
2019-03-04T03:51:25.127Z,987.63
2019-03-04T03:53:25.140Z,987.40
2019-03-04T03:54:25.225Z,987.40
2019-03-04T03:55:25.254Z,987.42
2019-03-04T03:56:25.590Z,987.37
2019-03-04T03:57:25.418Z,987.30
2019-03-04T03:58:25.624Z,987.36
2019-03-04T03:59:25.330Z,987.14
2019-03-04T04:00:25.472Z,987.37
2019-03-04T04:01:25.399Z,987.24
2019-03-04T04:02:25.428Z,987.27
2019-03-04T04:04:25.795Z,987.34
2019-03-04T04:05:25.535Z,987.29
2019-03-04T04:06:25.603Z,987.41
2019-03-04T04:07:25.638Z,987.43
2019-03-04T04:08:25.973Z,987.34
2019-03-04T04:09:25.719Z,987.27
2019-03-04T04:10:25.735Z,986.98
2019-03-04T04:11:26.075Z,986.88
2019-03-04T04:12:25.813Z,986.94
2019-03-04T04:13:25.840Z,986.95
2019-03-04T04:14:25.816Z,986.87
2019-03-04T04:15:25.855Z,986.92
2019-03-04T04:16:25.878Z,986.86
2019-03-04T04:17:25.964Z,986.86
2019-03-04T04:18:26.270Z,987.09
2019-03-04T04:19:25.981Z,987.01
2019-03-04T04:20:26.062Z,987.19
2019-03-04T04:21:26.083Z,987.11
2019-03-04T04:22:26.117Z,987.15
2019-03-04T04:23:26.155Z,987.06
2019-03-04T04:24:26.136Z,987.11
2019-03-04T04:25:26.215Z,986.96
2019-03-04T04:26:26.204Z,987.09
2019-03-04T04:27:26.275Z,986.88
2019-03-04T04:28:26.364Z,986.91
2019-03-04T04:29:26.343Z,986.95
2019-03-04T04:30:26.394Z,987.08
2019-03-04T04:31:26.711Z,986.99
2019-03-04T04:32:26.390Z,987.01
2019-03-04T04:33:26.473Z,987.07
2019-03-04T04:34:26.476Z,987.02
2019-03-04T04:35:26.550Z,986.99
2019-03-04T04:36:26.563Z,987.11
2019-03-04T04:37:26.844Z,987.04
2019-03-04T04:38:26.635Z,987.08
2019-03-04T04:39:26.615Z,987.08
2019-03-04T04:40:26.649Z,987.12
2019-03-04T04:41:26.739Z,987.12
2019-03-04T04:42:26.756Z,987.07
2019-03-04T04:43:27.090Z,987.01
2019-03-04T04:44:26.775Z,987.11
2019-03-04T04:45:26.799Z,987.06
2019-03-04T04:46:26.835Z,987.02
2019-03-04T04:47:26.867Z,987.18
2019-03-04T04:48:26.949Z,987.03
2019-03-04T04:49:27.282Z,986.86
2019-03-04T04:50:26.964Z,986.84
2019-03-04T04:51:27.000Z,986.81
2019-03-04T04:52:27.026Z,986.63
2019-03-04T04:53:27.105Z,986.77
2019-03-04T04:54:27.143Z,986.70
2019-03-04T04:55:27.119Z,986.76
2019-03-04T04:56:27.450Z,986.68
2019-03-04T04:57:27.241Z,986.73
2019-03-04T04:58:27.223Z,986.59
2019-03-04T04:59:27.300Z,986.43
2019-03-04T05:00:27.330Z,986.54
2019-03-04T05:01:27.309Z,986.61
2019-03-04T05:02:27.347Z,986.37
2019-03-04T05:03:27.728Z,986.26
2019-03-04T05:04:27.416Z,986.16
2019-03-04T05:05:27.486Z,986.07
2019-03-04T05:06:27.526Z,986.14
2019-03-04T05:07:27.550Z,986.13
2019-03-04T05:08:27.587Z,986.32
2019-03-04T05:09:27.569Z,986.14
2019-03-04T05:10:27.949Z,986.21
2019-03-04T05:12:27.668Z,986.26
2019-03-04T05:13:27.754Z,986.31
2019-03-04T05:14:27.730Z,986.29
2019-03-04T05:15:27.762Z,986.22
2019-03-04T05:17:27.825Z,986.16
2019-03-04T05:18:28.211Z,986.19
2019-03-04T05:19:27.936Z,986.12
2019-03-04T05:20:28.082Z,986.02
2019-03-04T05:21:27.955Z,986.17
2019-03-04T05:22:27.984Z,986.12
2019-03-04T05:23:28.071Z,986.10
2019-03-04T05:24:29.600Z,986.05
2019-03-04T05:25:28.082Z,986.09
2019-03-04T05:27:28.145Z,986.28
2019-03-04T05:28:28.229Z,986.20
2019-03-04T05:29:28.563Z,986.28
2019-03-04T05:30:28.292Z,986.12
2019-03-04T05:31:28.625Z,986.00
2019-03-04T05:32:28.301Z,985.92
2019-03-04T05:33:28.337Z,985.76
2019-03-04T05:34:28.376Z,985.90
2019-03-04T05:35:28.399Z,985.99
2019-03-04T05:36:28.484Z,985.97
2019-03-04T05:37:28.462Z,985.97
2019-03-04T05:38:28.854Z,985.80
2019-03-04T05:39:28.535Z,985.96
2019-03-04T05:40:28.569Z,985.83
2019-03-04T05:41:28.670Z,985.81
2019-03-04T05:42:28.669Z,985.78
2019-03-04T05:43:28.650Z,985.85
2019-03-04T05:44:28.736Z,985.78
2019-03-04T05:45:28.765Z,985.67
2019-03-04T05:46:28.755Z,985.53
2019-03-04T05:47:28.784Z,985.72
2019-03-04T05:48:28.871Z,985.65
2019-03-04T05:49:28.851Z,985.81
2019-03-04T05:50:28.886Z,985.71
2019-03-04T05:51:29.367Z,985.64
2019-03-04T05:52:28.966Z,985.70
2019-03-04T05:53:29.025Z,985.58
2019-03-04T05:54:29.054Z,985.67
2019-03-04T05:55:29.087Z,985.67
2019-03-04T05:56:29.074Z,985.67
2019-03-04T05:57:29.556Z,985.76
2019-03-04T05:58:29.130Z,985.64
2019-03-04T05:59:29.220Z,985.61
2019-03-04T06:00:29.257Z,985.82
2019-03-04T06:01:29.276Z,985.87
2019-03-04T06:02:29.264Z,985.78
2019-03-04T06:04:29.696Z,985.86
2019-03-04T06:05:29.511Z,986.72
2019-03-04T06:06:29.402Z,987.29
2019-03-04T06:07:29.428Z,987.44
2019-03-04T06:08:29.484Z,987.49
2019-03-04T06:09:29.544Z,987.66
2019-03-04T06:10:29.814Z,987.41
2019-03-04T06:11:29.547Z,987.34
2019-03-04T06:12:29.579Z,987.34
2019-03-04T06:13:29.668Z,987.52
2019-03-04T06:14:29.789Z,987.58
2019-03-04T06:15:29.736Z,987.50
2019-03-04T06:16:29.705Z,987.38
2019-03-04T06:17:30.038Z,987.34
2019-03-04T06:18:29.768Z,987.40
2019-03-04T06:19:29.857Z,987.55
2019-03-04T06:20:29.848Z,987.62
2019-03-04T06:21:29.868Z,987.53
2019-03-04T06:22:29.896Z,987.54
2019-03-04T06:23:29.994Z,987.58
2019-03-04T06:24:30.320Z,987.74
2019-03-04T06:25:30.026Z,987.66
2019-03-04T06:27:30.063Z,987.57
2019-03-04T06:28:30.144Z,987.60
2019-03-04T06:29:30.182Z,987.24
2019-03-04T06:30:30.298Z,987.58
2019-03-04T06:31:30.197Z,987.31
2019-03-04T06:33:30.403Z,987.11
2019-03-04T06:34:30.333Z,987.13
2019-03-04T06:35:30.321Z,987.16
2019-03-04T06:36:30.344Z,987.13
2019-03-04T06:37:30.379Z,987.04
2019-03-04T06:38:30.452Z,987.06
2019-03-04T06:39:30.486Z,986.92
2019-03-04T06:40:30.539Z,986.90
2019-03-04T06:41:30.552Z,986.78
2019-03-04T06:42:30.604Z,986.93
2019-03-04T06:43:30.567Z,986.80
2019-03-04T06:44:30.592Z,986.85
2019-03-04T06:45:30.673Z,986.91
2019-03-04T06:46:30.657Z,986.92
2019-03-04T06:47:30.692Z,986.87
2019-03-04T06:48:30.769Z,986.79
2019-03-04T06:49:30.753Z,986.82
2019-03-04T06:50:30.836Z,986.68
2019-03-04T06:51:30.817Z,986.74
2019-03-04T06:52:30.917Z,986.74
2019-03-04T06:53:30.953Z,986.71
2019-03-04T06:54:30.909Z,986.65
2019-03-04T06:55:31.387Z,986.67
2019-03-04T06:56:30.983Z,986.76
2019-03-04T06:57:31.005Z,986.81
2019-03-04T06:58:31.040Z,986.77
2019-03-04T06:59:31.115Z,986.72
2019-03-04T07:00:31.102Z,986.69
2019-03-04T07:02:31.224Z,986.72
2019-03-04T07:03:31.251Z,986.72
2019-03-04T07:04:31.221Z,986.74
2019-03-04T07:05:31.255Z,986.77
2019-03-04T07:06:31.298Z,986.77
2019-03-04T07:07:31.367Z,986.78
2019-03-04T07:08:31.702Z,986.82
2019-03-04T07:09:31.431Z,986.80
2019-03-04T07:11:31.494Z,986.70
2019-03-04T07:12:31.515Z,986.78
2019-03-04T07:13:31.552Z,986.80
2019-03-04T07:14:31.531Z,986.93
2019-03-04T07:15:31.567Z,987.15
2019-03-04T07:16:32.227Z,987.68
2019-03-04T07:17:31.622Z,987.22
2019-03-04T07:18:31.666Z,987.05
2019-03-04T07:19:31.712Z,987.14
2019-03-04T07:20:31.725Z,987.35
2019-03-04T07:21:32.100Z,986.72
2019-03-04T07:22:31.782Z,986.75
2019-03-04T07:23:31.862Z,986.82
2019-03-04T07:24:31.890Z,986.76
2019-03-04T07:25:31.874Z,986.74
2019-03-04T07:26:31.903Z,986.77
2019-03-04T07:27:31.985Z,986.69
2019-03-04T07:28:32.329Z,986.64
2019-03-04T07:29:31.994Z,986.72
2019-03-04T07:30:32.036Z,986.78
2019-03-04T07:31:32.119Z,986.74
2019-03-04T07:32:32.152Z,986.81
2019-03-04T07:33:32.190Z,986.82
2019-03-04T07:34:33.923Z,986.86
2019-03-04T07:35:32.534Z,986.87
2019-03-04T07:36:32.226Z,986.89
2019-03-04T07:37:32.291Z,987.01
2019-03-04T07:38:32.278Z,986.91
2019-03-04T07:39:32.311Z,986.90
2019-03-04T07:40:32.345Z,986.77
2019-03-04T07:41:32.423Z,986.82
2019-03-04T07:42:32.769Z,986.84
2019-03-04T07:43:32.434Z,986.88
2019-03-04T07:44:32.465Z,986.93
2019-03-04T07:45:32.544Z,986.92
2019-03-04T07:46:32.551Z,987.02
2019-03-04T07:47:32.608Z,987.07
2019-03-04T07:48:32.637Z,986.87
2019-03-04T07:50:32.651Z,987.04
2019-03-04T07:51:32.677Z,987.04
2019-03-04T07:52:39.033Z,986.99
2019-03-04T07:53:32.793Z,986.97
2019-03-04T07:54:32.770Z,987.01
2019-03-04T07:55:32.863Z,987.08
2019-03-04T07:56:33.195Z,987.03
2019-03-04T07:57:32.933Z,987.10
2019-03-04T07:58:32.958Z,987.14
2019-03-04T07:59:32.924Z,987.12
2019-03-04T08:00:33.064Z,987.08
2019-03-04T08:02:33.171Z,987.11
2019-03-04T08:04:33.144Z,986.99
2019-03-04T08:05:33.171Z,987.15
2019-03-04T08:06:33.142Z,987.06
2019-03-04T08:08:33.265Z,987.14
2019-03-04T08:10:33.715Z,987.25
2019-03-04T08:11:33.303Z,987.30
2019-03-04T08:12:33.332Z,987.30
2019-03-04T08:13:33.367Z,987.36
2019-03-04T08:14:33.396Z,987.37
2019-03-04T08:15:33.488Z,987.36
2019-03-04T08:16:33.472Z,987.36
2019-03-04T08:17:33.546Z,987.43
2019-03-04T08:18:33.527Z,987.41
2019-03-04T08:19:33.546Z,987.48
2019-03-04T08:20:33.630Z,987.40
2019-03-04T08:21:33.612Z,987.43
2019-03-04T08:22:33.644Z,987.35
2019-03-04T08:23:33.723Z,987.45
2019-03-04T08:25:33.740Z,987.36
2019-03-04T08:26:33.763Z,987.41
2019-03-04T08:27:33.799Z,987.35
2019-03-04T08:28:33.884Z,987.38
2019-03-04T08:29:33.865Z,987.45
2019-03-04T08:31:33.979Z,987.59
2019-03-04T08:32:33.961Z,987.53
2019-03-04T08:33:33.987Z,987.55
2019-03-04T08:34:34.065Z,987.51
2019-03-04T08:35:34.044Z,987.60
2019-03-04T08:36:34.122Z,987.52
2019-03-04T08:37:34.116Z,987.58
2019-03-04T08:38:34.189Z,987.52
2019-03-04T08:39:34.169Z,987.62
2019-03-04T08:40:34.204Z,987.48
2019-03-04T08:41:34.294Z,987.69
2019-03-04T08:42:34.309Z,987.56
2019-03-04T08:43:34.467Z,987.60
2019-03-04T08:44:34.346Z,987.43
2019-03-04T08:45:34.407Z,987.58
2019-03-04T08:46:34.392Z,987.48
2019-03-04T08:47:34.466Z,987.41
2019-03-04T08:48:34.453Z,987.48
2019-03-04T08:49:34.478Z,987.53
2019-03-04T08:50:34.512Z,987.55
2019-03-04T08:51:34.592Z,987.46
2019-03-04T08:52:34.616Z,987.46
2019-03-04T08:53:34.906Z,987.47
2019-03-04T08:54:34.631Z,987.38
2019-03-04T08:55:34.664Z,987.55
2019-03-04T08:56:34.714Z,987.65
2019-03-04T08:57:34.776Z,987.39
2019-03-04T08:59:34.835Z,987.41
2019-03-04T09:00:35.174Z,987.43
2019-03-04T09:01:35.003Z,987.45
2019-03-04T09:02:34.929Z,987.49
2019-03-04T09:03:34.916Z,987.56
2019-03-04T09:04:34.941Z,987.26
2019-03-04T09:05:35.025Z,987.57
2019-03-04T09:06:35.309Z,987.52
2019-03-04T09:07:35.089Z,987.47
2019-03-04T09:08:35.065Z,987.73
2019-03-04T09:09:35.094Z,987.54
2019-03-04T09:10:35.147Z,987.47
2019-03-04T09:11:35.309Z,987.63
2019-03-04T09:12:35.990Z,987.48
2019-03-04T09:13:35.218Z,987.51
2019-03-04T09:14:35.307Z,987.53
2019-03-04T09:15:35.289Z,987.53
2019-03-04T09:16:35.311Z,987.55
2019-03-04T09:17:35.342Z,987.36
2019-03-04T09:18:35.737Z,987.63
2019-03-04T09:19:35.423Z,987.29
2019-03-04T09:20:35.444Z,987.49
2019-03-04T09:21:35.493Z,987.54
2019-03-04T09:22:35.503Z,987.47
2019-03-04T09:23:35.596Z,987.52
2019-03-04T09:24:35.564Z,987.56
2019-03-04T09:25:35.624Z,987.53
2019-03-04T09:26:35.697Z,987.57
2019-03-04T09:27:35.714Z,987.71
2019-03-04T09:28:35.760Z,987.51
2019-03-04T09:30:35.835Z,987.46
2019-03-04T09:31:36.152Z,987.29
2019-03-04T09:32:35.897Z,987.41
2019-03-04T09:33:35.976Z,987.43
2019-03-04T09:35:36.077Z,987.38
2019-03-04T09:36:36.390Z,987.45
2019-03-04T09:37:35.995Z,987.47
2019-03-04T09:38:36.360Z,987.39
2019-03-04T09:39:36.060Z,987.24
2019-03-04T09:40:36.128Z,987.44
2019-03-04T09:41:36.177Z,987.24
2019-03-04T09:42:36.141Z,987.43
2019-03-04T09:43:36.219Z,987.43
2019-03-04T09:44:36.253Z,987.33
2019-03-04T09:45:39.234Z,987.40
2019-03-04T09:46:36.313Z,987.67
2019-03-04T09:47:36.344Z,987.45
2019-03-04T09:48:36.386Z,987.23
2019-03-04T09:49:36.408Z,987.38
2019-03-04T09:50:36.658Z,987.22
2019-03-04T09:51:36.472Z,987.40
2019-03-04T09:52:36.459Z,987.08
2019-03-04T09:53:39.765Z,987.27
2019-03-04T09:54:36.562Z,987.26
2019-03-04T09:55:36.599Z,987.21
2019-03-04T09:56:36.656Z,987.09
2019-03-04T09:57:36.655Z,987.21
2019-03-04T09:58:36.691Z,987.46
2019-03-04T09:59:36.739Z,987.17
2019-03-04T10:00:36.802Z,987.23
2019-03-04T10:04:36.910Z,986.96
2019-03-04T10:05:36.966Z,987.26
2019-03-04T10:07:36.965Z,987.16
2019-03-04T10:08:37.068Z,987.17
2019-03-04T10:09:37.046Z,987.22
2019-03-04T10:10:37.090Z,987.06
2019-03-04T10:11:37.054Z,987.17
2019-03-04T10:12:37.094Z,987.14
2019-03-04T10:13:37.155Z,986.98
2019-03-04T10:14:37.298Z,987.07
2019-03-04T10:15:37.231Z,987.17
2019-03-04T10:16:37.208Z,987.17
2019-03-04T10:18:37.318Z,987.22
2019-03-04T10:19:37.352Z,987.08
2019-03-04T10:20:37.518Z,987.00
2019-03-04T10:21:37.435Z,987.14
2019-03-04T10:22:37.393Z,987.09
2019-03-04T10:23:37.433Z,987.05
2019-03-04T10:24:37.512Z,986.86
2019-03-04T10:25:37.560Z,986.85
2019-03-04T10:26:37.546Z,987.07
2019-03-04T10:28:37.647Z,986.89
2019-03-04T10:29:37.666Z,986.88
2019-03-04T10:31:37.750Z,986.88
2019-03-04T10:32:37.711Z,986.71
2019-03-04T10:33:37.741Z,986.73
2019-03-04T10:34:37.842Z,986.73
2019-03-04T10:35:37.862Z,986.90
2019-03-04T10:36:37.893Z,986.94
2019-03-04T10:37:37.924Z,986.85
2019-03-04T10:38:37.910Z,986.87
2019-03-04T10:39:37.982Z,986.86
2019-03-04T10:40:38.019Z,986.72
2019-03-04T10:41:38.069Z,986.80
2019-03-04T10:42:38.383Z,986.83
2019-03-04T10:43:38.154Z,987.04
2019-03-04T10:45:38.174Z,986.64
2019-03-04T10:46:38.271Z,986.78
2019-03-04T10:47:38.200Z,986.74
2019-03-04T10:48:38.567Z,986.86
2019-03-04T10:49:38.314Z,986.77
2019-03-04T10:51:38.357Z,986.77
2019-03-04T10:52:38.388Z,986.63
2019-03-04T10:53:38.387Z,986.75
2019-03-04T10:54:38.754Z,986.74
2019-03-04T10:55:41.885Z,986.73
2019-03-04T10:56:40.712Z,986.73
2019-03-04T10:57:38.561Z,986.76
2019-03-04T10:58:38.553Z,986.74
2019-03-04T10:59:38.623Z,986.64
2019-03-04T11:00:38.895Z,986.70
2019-03-04T11:01:38.680Z,986.80
2019-03-04T11:02:38.830Z,986.73
2019-03-04T11:03:38.756Z,986.67
2019-03-04T11:05:38.800Z,986.82
2019-03-04T11:06:38.843Z,986.93
2019-03-04T11:08:38.894Z,986.92
2019-03-04T11:09:38.932Z,986.84
2019-03-04T11:10:38.998Z,986.89
2019-03-04T11:11:38.984Z,987.00
2019-03-04T11:14:39.085Z,987.14
2019-03-04T11:16:39.448Z,987.08
2019-03-04T11:17:39.137Z,987.20
2019-03-04T11:18:39.215Z,987.07
2019-03-04T11:19:39.251Z,987.06
2019-03-04T11:20:39.301Z,987.27
2019-03-04T11:21:39.356Z,987.23
2019-03-04T11:22:39.644Z,987.43
2019-03-04T11:23:39.401Z,987.63
2019-03-04T11:24:39.507Z,988.03
2019-03-04T11:25:39.521Z,988.14
2019-03-04T11:26:39.432Z,988.29
2019-03-04T11:27:39.640Z,988.28
2019-03-04T11:28:39.631Z,988.44
2019-03-04T11:29:39.863Z,988.41
2019-03-04T11:30:39.592Z,988.41
2019-03-04T11:31:39.618Z,988.48
2019-03-04T11:32:39.645Z,988.20
2019-03-04T11:33:39.886Z,988.48
2019-03-04T11:34:39.843Z,988.56
2019-03-04T11:35:39.759Z,988.32
2019-03-04T11:36:39.803Z,988.49
2019-03-04T11:37:39.817Z,988.51
2019-03-04T11:38:40.007Z,988.46
2019-03-04T11:39:39.881Z,988.47
2019-03-04T11:40:39.970Z,988.56
2019-03-04T11:41:39.953Z,988.58
2019-03-04T11:42:40.273Z,988.65
2019-03-04T11:43:40.014Z,988.68
2019-03-04T11:44:39.996Z,988.74
2019-03-04T11:45:40.354Z,988.78
2019-03-04T11:46:40.095Z,988.81
2019-03-04T11:48:40.215Z,988.86
2019-03-04T11:49:40.200Z,988.90
2019-03-04T11:50:40.194Z,988.89
2019-03-04T11:51:40.369Z,988.96
2019-03-04T11:52:40.278Z,988.97
2019-03-04T11:53:40.333Z,988.94
2019-03-04T11:54:40.307Z,989.01
2019-03-04T11:55:40.728Z,988.95
2019-03-04T11:56:40.412Z,989.04
2019-03-04T11:57:40.439Z,988.96
2019-03-04T11:58:40.472Z,989.02
2019-03-04T11:59:40.622Z,989.01
2019-03-04T12:00:40.480Z,989.05
2019-03-04T12:01:40.524Z,989.06
2019-03-04T12:02:40.561Z,989.07
2019-03-04T12:03:40.757Z,989.10
2019-03-04T12:04:40.630Z,989.12
2019-03-04T12:05:40.711Z,989.14
2019-03-04T12:06:40.777Z,989.15
2019-03-04T12:07:40.761Z,989.16
2019-03-04T12:08:40.864Z,989.25
2019-03-04T12:09:40.876Z,989.30
2019-03-04T12:10:40.820Z,989.27
2019-03-04T12:11:40.893Z,989.32
2019-03-04T12:12:40.942Z,989.32
2019-03-04T12:13:41.285Z,989.38
2019-03-04T12:14:40.940Z,989.38
2019-03-04T12:15:41.048Z,989.41
2019-03-04T12:16:41.080Z,989.39
2019-03-04T12:17:41.061Z,989.51
2019-03-04T12:18:41.156Z,989.55
2019-03-04T12:19:41.227Z,989.65
2019-03-04T12:20:41.481Z,989.55
2019-03-04T12:21:41.168Z,989.62
2019-03-04T12:22:41.254Z,989.63
2019-03-04T12:23:41.296Z,989.65
2019-03-04T12:24:41.314Z,989.66
2019-03-04T12:25:41.267Z,989.69
2019-03-04T12:26:41.304Z,989.65
2019-03-04T12:28:41.438Z,989.64
2019-03-04T12:29:41.441Z,989.70
2019-03-04T12:30:41.454Z,989.75
2019-03-04T12:31:41.463Z,989.78
2019-03-04T12:32:41.533Z,989.77
2019-03-04T12:33:41.582Z,989.77
2019-03-04T12:34:41.611Z,989.79
2019-03-04T12:36:41.682Z,989.83
2019-03-04T12:37:41.793Z,989.84
2019-03-04T12:38:41.757Z,989.86
2019-03-04T12:39:42.069Z,989.88
2019-03-04T12:40:41.783Z,989.95
2019-03-04T12:42:41.863Z,989.97
2019-03-04T12:44:41.917Z,990.09
2019-03-04T12:45:42.186Z,990.12
2019-03-04T12:46:42.059Z,990.11
2019-03-04T12:47:42.015Z,990.12
2019-03-04T12:48:42.040Z,990.20
2019-03-04T12:49:42.063Z,990.18
2019-03-04T12:50:42.163Z,990.24
2019-03-04T12:51:42.142Z,990.26
2019-03-04T12:52:42.150Z,990.28
2019-03-04T12:53:42.209Z,990.29
2019-03-04T12:54:42.185Z,990.33
2019-03-04T12:55:42.264Z,990.36
2019-03-04T12:56:42.314Z,990.40
2019-03-04T12:57:42.391Z,990.44
2019-03-04T12:58:42.378Z,990.53
2019-03-04T12:59:42.685Z,990.49
2019-03-04T13:00:42.519Z,990.55
2019-03-04T13:01:42.498Z,990.58
2019-03-04T13:02:42.723Z,990.58
2019-03-04T13:03:42.520Z,990.60
2019-03-04T13:04:42.871Z,990.63
2019-03-04T13:05:42.636Z,990.59
2019-03-04T13:06:42.546Z,990.58
2019-03-04T13:07:42.636Z,990.59
2019-03-04T13:08:42.693Z,990.57
2019-03-04T13:11:42.939Z,990.67
2019-03-04T13:12:42.795Z,990.72
2019-03-04T13:13:42.777Z,990.71
2019-03-04T13:14:42.810Z,990.74
2019-03-04T13:15:42.894Z,990.78
2019-03-04T13:18:43.180Z,990.79
2019-03-04T13:19:43.007Z,990.88
2019-03-04T13:21:43.115Z,990.87
2019-03-04T13:22:43.165Z,990.92
2019-03-04T13:23:43.155Z,990.93
2019-03-04T13:24:43.220Z,990.95
2019-03-04T13:25:43.255Z,990.98
2019-03-04T13:27:43.281Z,991.07
2019-03-04T13:28:43.286Z,991.06